Terminal Aerodrome Forecast
Issued by NWS Twin Cities, MN

Home | Current Version | Previous Version | Graphics & Text | Print | Product List | Glossary On
Versions: 1 2 3 4 5 6 7 8 9 10 11 12 13 14 15 16 17 18 19 20 21 22 23 24 25 26 27 28 29 30 31 32 33
000
FTUS43 KMPX 170531
TAFMSP
TAF
KMSP 170531Z 1706/1812 13008KT P6SM BKN015
     FM171000 20007KT 5SM BR VCSH OVC010
     FM171200 26009KT 6SM BR VCSH OVC007
     FM171600 30012G20KT P6SM OVC008
     FM172000 30017G25KT P6SM BKN018
     FM180000 31013G20KT P6SM SCT020 BKN040
     FM180200 32007KT P6SM SCT040 SCT250=

USA.gov is the U.S. government's official web portal to all federal, state and local government web resources and services.